sensor_id;sensor_type;location;lat;lon;timestamp;P1;durP1;ratioP1;P2;durP2;ratioP2
33902;SDS011;20194;50.950;5.346;2022-08-21T00:00:46;9.63;;;3.47;;
33902;SDS011;20194;50.950;5.346;2022-08-21T00:03:13;8.35;;;3.70;;
33902;SDS011;20194;50.950;5.346;2022-08-21T00:05:41;7.78;;;3.90;;
33902;SDS011;20194;50.950;5.346;2022-08-21T00:08:12;10.85;;;4.18;;
33902;SDS011;20194;50.950;5.346;2022-08-21T00:10:39;13.05;;;3.67;;
33902;SDS011;20194;50.950;5.346;2022-08-21T00:13:05;8.35;;;3.78;;
33902;SDS011;20194;50.950;5.346;2022-08-21T00:15:32;10.45;;;4.07;;
33902;SDS011;20194;50.950;5.346;2022-08-21T00:17:59;13.75;;;3.90;;
33902;SDS011;20194;50.950;5.346;2022-08-21T00:20:25;9.23;;;3.60;;
33902;SDS011;20194;50.950;5.346;2022-08-21T00:22:51;7.57;;;3.67;;
33902;SDS011;20194;50.950;5.346;2022-08-21T00:25:17;8.60;;;3.63;;
33902;SDS011;20194;50.950;5.346;2022-08-21T00:27:44;9.52;;;4.35;;
33902;SDS011;20194;50.950;5.346;2022-08-21T00:30:11;9.80;;;3.72;;
33902;SDS011;20194;50.950;5.346;2022-08-21T00:32:39;8.88;;;4.28;;
33902;SDS011;20194;50.950;5.346;2022-08-21T00:35:09;11.32;;;3.95;;
33902;SDS011;20194;50.950;5.346;2022-08-21T00:37:37;7.90;;;3.15;;
33902;SDS011;20194;50.950;5.346;2022-08-21T00:40:04;7.57;;;3.38;;
33902;SDS011;20194;50.950;5.346;2022-08-21T00:42:31;7.78;;;3.90;;
33902;SDS011;20194;50.950;5.346;2022-08-21T00:44:57;9.13;;;3.60;;
33902;SDS011;20194;50.950;5.346;2022-08-21T00:47:23;8.98;;;3.55;;
33902;SDS011;20194;50.950;5.346;2022-08-21T00:49:49;7.43;;;3.30;;
33902;SDS011;20194;50.950;5.346;2022-08-21T00:52:16;8.25;;;3.80;;
33902;SDS011;20194;50.950;5.346;2022-08-21T00:54:45;12.18;;;3.80;;
33902;SDS011;20194;50.950;5.346;2022-08-21T00:57:17;13.80;;;3.72;;
33902;SDS011;20194;50.950;5.346;2022-08-21T01:00:04;7.57;;;3.40;;
33902;SDS011;20194;50.950;5.346;2022-08-21T01:02:35;6.13;;;3.05;;
33902;SDS011;20194;50.950;5.346;2022-08-21T01:05:01;7.50;;;3.35;;
33902;SDS011;20194;50.950;5.346;2022-08-21T01:07:27;10.95;;;4.18;;
33902;SDS011;20194;50.950;5.346;2022-08-21T01:09:53;10.63;;;3.17;;
33902;SDS011;20194;50.950;5.346;2022-08-21T01:12:18;7.85;;;3.13;;
33902;SDS011;20194;50.950;5.346;2022-08-21T01:14:44;10.55;;;3.20;;
33902;SDS011;20194;50.950;5.346;2022-08-21T01:17:11;8.35;;;2.95;;
33902;SDS011;20194;50.950;5.346;2022-08-21T01:19:39;6.28;;;2.92;;
33902;SDS011;20194;50.950;5.346;2022-08-21T01:22:06;12.45;;;4.15;;
33902;SDS011;20194;50.950;5.346;2022-08-21T01:24:32;8.45;;;3.17;;
33902;SDS011;20194;50.950;5.346;2022-08-21T01:26:58;6.50;;;2.72;;
33902;SDS011;20194;50.950;5.346;2022-08-21T01:32:08;9.88;;;3.28;;
33902;SDS011;20194;50.950;5.346;2022-08-21T01:34:39;8.23;;;3.35;;
33902;SDS011;20194;50.950;5.346;2022-08-21T01:37:07;8.65;;;3.13;;
33902;SDS011;20194;50.950;5.346;2022-08-21T01:39:33;10.85;;;3.60;;
33902;SDS011;20194;50.950;5.346;2022-08-21T01:42:01;7.45;;;3.08;;
33902;SDS011;20194;50.950;5.346;2022-08-21T01:44:27;7.78;;;3.15;;
33902;SDS011;20194;50.950;5.346;2022-08-21T01:46:53;8.00;;;3.03;;
33902;SDS011;20194;50.950;5.346;2022-08-21T01:49:20;10.15;;;4.25;;
33902;SDS011;20194;50.950;5.346;2022-08-21T01:51:46;9.93;;;3.45;;
33902;SDS011;20194;50.950;5.346;2022-08-21T01:54:12;11.27;;;2.97;;
33902;SDS011;20194;50.950;5.346;2022-08-21T01:56:38;10.82;;;3.63;;
33902;SDS011;20194;50.950;5.346;2022-08-21T01:59:06;9.43;;;2.78;;
33902;SDS011;20194;50.950;5.346;2022-08-21T02:01:32;10.57;;;3.85;;
33902;SDS011;20194;50.950;5.346;2022-08-21T02:03:59;8.57;;;3.25;;
33902;SDS011;20194;50.950;5.346;2022-08-21T02:06:26;7.43;;;3.40;;
33902;SDS011;20194;50.950;5.346;2022-08-21T02:08:52;12.52;;;3.45;;
33902;SDS011;20194;50.950;5.346;2022-08-21T02:11:18;8.60;;;2.80;;
33902;SDS011;20194;50.950;5.346;2022-08-21T02:13:44;10.25;;;3.88;;
33902;SDS011;20194;50.950;5.346;2022-08-21T02:16:10;13.93;;;3.55;;
33902;SDS011;20194;50.950;5.346;2022-08-21T02:18:36;16.10;;;3.55;;
33902;SDS011;20194;50.950;5.346;2022-08-21T02:21:03;9.80;;;2.97;;
33902;SDS011;20194;50.950;5.346;2022-08-21T02:23:29;7.82;;;3.13;;
33902;SDS011;20194;50.950;5.346;2022-08-21T02:25:56;10.25;;;3.60;;
33902;SDS011;20194;50.950;5.346;2022-08-21T02:28:23;12.63;;;3.55;;
33902;SDS011;20194;50.950;5.346;2022-08-21T02:30:50;13.77;;;3.63;;
33902;SDS011;20194;50.950;5.346;2022-08-21T02:33:16;7.97;;;3.67;;
33902;SDS011;20194;50.950;5.346;2022-08-21T02:35:43;7.15;;;3.20;;
33902;SDS011;20194;50.950;5.346;2022-08-21T02:38:11;14.18;;;3.78;;
33902;SDS011;20194;50.950;5.346;2022-08-21T02:40:39;9.82;;;3.90;;
33902;SDS011;20194;50.950;5.346;2022-08-21T02:43:08;10.68;;;3.42;;
33902;SDS011;20194;50.950;5.346;2022-08-21T02:45:34;9.77;;;3.05;;
33902;SDS011;20194;50.950;5.346;2022-08-21T02:48:03;10.10;;;3.15;;
33902;SDS011;20194;50.950;5.346;2022-08-21T02:50:33;15.23;;;4.03;;
33902;SDS011;20194;50.950;5.346;2022-08-21T02:53:02;14.18;;;3.50;;
33902;SDS011;20194;50.950;5.346;2022-08-21T02:55:29;8.93;;;3.00;;
33902;SDS011;20194;50.950;5.346;2022-08-21T02:57:57;11.77;;;3.70;;
33902;SDS011;20194;50.950;5.346;2022-08-21T03:00:24;12.27;;;4.07;;
33902;SDS011;20194;50.950;5.346;2022-08-21T03:02:52;15.25;;;5.00;;
33902;SDS011;20194;50.950;5.346;2022-08-21T03:05:18;8.93;;;4.72;;
33902;SDS011;20194;50.950;5.346;2022-08-21T03:07:44;13.20;;;4.13;;
33902;SDS011;20194;50.950;5.346;2022-08-21T03:10:12;11.95;;;4.00;;
33902;SDS011;20194;50.950;5.346;2022-08-21T03:12:38;8.32;;;3.72;;
33902;SDS011;20194;50.950;5.346;2022-08-21T03:15:08;13.00;;;4.20;;
33902;SDS011;20194;50.950;5.346;2022-08-21T03:17:36;11.25;;;4.25;;
33902;SDS011;20194;50.950;5.346;2022-08-21T03:20:03;9.07;;;3.83;;
33902;SDS011;20194;50.950;5.346;2022-08-21T03:22:30;9.02;;;3.92;;
33902;SDS011;20194;50.950;5.346;2022-08-21T03:24:57;17.88;;;3.85;;
33902;SDS011;20194;50.950;5.346;2022-08-21T03:27:23;6.57;;;3.13;;
33902;SDS011;20194;50.950;5.346;2022-08-21T03:29:49;9.77;;;3.40;;
33902;SDS011;20194;50.950;5.346;2022-08-21T03:32:15;10.48;;;3.15;;
33902;SDS011;20194;50.950;5.346;2022-08-21T03:34:41;10.65;;;3.70;;
33902;SDS011;20194;50.950;5.346;2022-08-21T03:37:07;10.75;;;3.45;;
33902;SDS011;20194;50.950;5.346;2022-08-21T03:39:33;13.43;;;3.47;;
33902;SDS011;20194;50.950;5.346;2022-08-21T03:41:59;10.75;;;3.20;;
33902;SDS011;20194;50.950;5.346;2022-08-21T03:44:26;9.35;;;3.08;;
33902;SDS011;20194;50.950;5.346;2022-08-21T03:46:55;11.25;;;3.00;;
33902;SDS011;20194;50.950;5.346;2022-08-21T03:49:22;15.60;;;3.53;;
33902;SDS011;20194;50.950;5.346;2022-08-21T03:51:47;15.27;;;3.08;;
33902;SDS011;20194;50.950;5.346;2022-08-21T03:54:13;15.25;;;3.13;;
33902;SDS011;20194;50.950;5.346;2022-08-21T03:56:39;11.63;;;3.20;;
33902;SDS011;20194;50.950;5.346;2022-08-21T03:59:05;9.95;;;2.88;;
33902;SDS011;20194;50.950;5.346;2022-08-21T04:01:31;10.65;;;3.38;;
33902;SDS011;20194;50.950;5.346;2022-08-21T04:03:57;8.38;;;2.90;;
33902;SDS011;20194;50.950;5.346;2022-08-21T04:06:23;8.23;;;3.25;;
33902;SDS011;20194;50.950;5.346;2022-08-21T04:08:50;8.88;;;2.78;;
33902;SDS011;20194;50.950;5.346;2022-08-21T04:11:16;7.35;;;2.85;;
33902;SDS011;20194;50.950;5.346;2022-08-21T04:13:42;10.45;;;3.10;;
33902;SDS011;20194;50.950;5.346;2022-08-21T04:16:08;8.85;;;2.72;;
33902;SDS011;20194;50.950;5.346;2022-08-21T04:18:33;8.75;;;3.35;;
33902;SDS011;20194;50.950;5.346;2022-08-21T04:20:59;26.17;;;3.95;;
33902;SDS011;20194;50.950;5.346;2022-08-21T04:23:26;9.80;;;2.90;;
33902;SDS011;20194;50.950;5.346;2022-08-21T04:25:53;11.45;;;3.42;;
33902;SDS011;20194;50.950;5.346;2022-08-21T04:28:21;7.65;;;2.70;;
33902;SDS011;20194;50.950;5.346;2022-08-21T04:30:48;9.90;;;3.00;;
33902;SDS011;20194;50.950;5.346;2022-08-21T04:33:15;11.32;;;3.08;;
33902;SDS011;20194;50.950;5.346;2022-08-21T04:35:41;13.43;;;3.38;;
33902;SDS011;20194;50.950;5.346;2022-08-21T04:38:07;12.05;;;2.75;;
33902;SDS011;20194;50.950;5.346;2022-08-21T04:40:33;9.30;;;2.95;;
33902;SDS011;20194;50.950;5.346;2022-08-21T04:43:03;9.50;;;3.58;;
33902;SDS011;20194;50.950;5.346;2022-08-21T04:45:32;8.65;;;2.85;;
33902;SDS011;20194;50.950;5.346;2022-08-21T04:48:00;10.57;;;3.63;;
33902;SDS011;20194;50.950;5.346;2022-08-21T04:50:34;8.75;;;2.65;;
33902;SDS011;20194;50.950;5.346;2022-08-21T04:53:04;8.43;;;2.50;;
33902;SDS011;20194;50.950;5.346;2022-08-21T04:55:32;6.45;;;2.53;;
33902;SDS011;20194;50.950;5.346;2022-08-21T04:57:58;11.52;;;3.28;;
33902;SDS011;20194;50.950;5.346;2022-08-21T05:00:25;9.98;;;2.58;;
33902;SDS011;20194;50.950;5.346;2022-08-21T05:02:51;8.30;;;2.88;;
33902;SDS011;20194;50.950;5.346;2022-08-21T05:05:21;12.40;;;3.13;;
33902;SDS011;20194;50.950;5.346;2022-08-21T05:07:47;7.22;;;3.28;;
33902;SDS011;20194;50.950;5.346;2022-08-21T05:10:14;12.07;;;2.85;;
33902;SDS011;20194;50.950;5.346;2022-08-21T05:12:40;11.70;;;3.03;;
33902;SDS011;20194;50.950;5.346;2022-08-21T05:15:08;8.98;;;2.42;;
33902;SDS011;20194;50.950;5.346;2022-08-21T05:17:34;8.60;;;2.72;;
33902;SDS011;20194;50.950;5.346;2022-08-21T05:20:00;10.95;;;2.88;;
33902;SDS011;20194;50.950;5.346;2022-08-21T05:22:27;13.45;;;3.08;;
33902;SDS011;20194;50.950;5.346;2022-08-21T05:24:53;7.15;;;2.90;;
33902;SDS011;20194;50.950;5.346;2022-08-21T05:27:18;8.20;;;2.83;;
33902;SDS011;20194;50.950;5.346;2022-08-21T05:29:44;12.23;;;3.42;;
33902;SDS011;20194;50.950;5.346;2022-08-21T05:32:10;12.82;;;3.00;;
33902;SDS011;20194;50.950;5.346;2022-08-21T05:34:37;13.63;;;2.97;;
33902;SDS011;20194;50.950;5.346;2022-08-21T05:37:03;11.32;;;2.40;;
33902;SDS011;20194;50.950;5.346;2022-08-21T05:39:29;6.13;;;1.85;;
33902;SDS011;20194;50.950;5.346;2022-08-21T05:41:55;13.13;;;2.65;;
33902;SDS011;20194;50.950;5.346;2022-08-21T05:44:20;13.38;;;3.13;;
33902;SDS011;20194;50.950;5.346;2022-08-21T05:46:46;9.90;;;2.60;;
33902;SDS011;20194;50.950;5.346;2022-08-21T05:49:12;7.47;;;2.25;;
33902;SDS011;20194;50.950;5.346;2022-08-21T05:51:39;6.32;;;2.70;;
33902;SDS011;20194;50.950;5.346;2022-08-21T05:54:05;11.80;;;2.60;;
33902;SDS011;20194;50.950;5.346;2022-08-21T05:56:31;7.38;;;2.70;;
33902;SDS011;20194;50.950;5.346;2022-08-21T05:58:57;7.60;;;2.33;;
33902;SDS011;20194;50.950;5.346;2022-08-21T06:01:23;10.82;;;2.95;;
33902;SDS011;20194;50.950;5.346;2022-08-21T06:03:49;17.45;;;3.30;;
33902;SDS011;20194;50.950;5.346;2022-08-21T06:06:15;10.13;;;2.40;;
33902;SDS011;20194;50.950;5.346;2022-08-21T06:08:41;9.77;;;2.53;;
33902;SDS011;20194;50.950;5.346;2022-08-21T06:11:07;9.98;;;2.88;;
33902;SDS011;20194;50.950;5.346;2022-08-21T06:13:33;11.13;;;2.72;;
33902;SDS011;20194;50.950;5.346;2022-08-21T06:16:04;8.10;;;2.40;;
33902;SDS011;20194;50.950;5.346;2022-08-21T06:18:38;9.90;;;2.50;;
33902;SDS011;20194;50.950;5.346;2022-08-21T06:21:04;11.55;;;3.28;;
33902;SDS011;20194;50.950;5.346;2022-08-21T06:23:31;13.38;;;2.53;;
33902;SDS011;20194;50.950;5.346;2022-08-21T06:25:57;5.90;;;2.47;;
33902;SDS011;20194;50.950;5.346;2022-08-21T06:28:22;13.13;;;2.78;;
33902;SDS011;20194;50.950;5.346;2022-08-21T06:30:48;7.80;;;3.10;;
33902;SDS011;20194;50.950;5.346;2022-08-21T06:33:14;11.63;;;3.65;;
33902;SDS011;20194;50.950;5.346;2022-08-21T06:35:40;8.18;;;2.60;;
33902;SDS011;20194;50.950;5.346;2022-08-21T06:38:06;9.05;;;2.88;;
33902;SDS011;20194;50.950;5.346;2022-08-21T06:40:32;7.57;;;2.60;;
33902;SDS011;20194;50.950;5.346;2022-08-21T06:42:58;7.78;;;2.70;;
33902;SDS011;20194;50.950;5.346;2022-08-21T06:45:31;10.88;;;2.47;;
33902;SDS011;20194;50.950;5.346;2022-08-21T06:47:57;8.30;;;2.72;;
33902;SDS011;20194;50.950;5.346;2022-08-21T06:50:23;10.07;;;2.83;;
33902;SDS011;20194;50.950;5.346;2022-08-21T06:52:49;8.32;;;2.35;;
33902;SDS011;20194;50.950;5.346;2022-08-21T06:55:14;7.15;;;2.70;;
33902;SDS011;20194;50.950;5.346;2022-08-21T06:57:40;11.52;;;2.97;;
33902;SDS011;20194;50.950;5.346;2022-08-21T07:00:06;14.50;;;2.42;;
33902;SDS011;20194;50.950;5.346;2022-08-21T07:02:33;13.05;;;2.78;;
33902;SDS011;20194;50.950;5.346;2022-08-21T07:04:59;10.55;;;2.70;;
33902;SDS011;20194;50.950;5.346;2022-08-21T07:07:25;13.65;;;3.15;;
33902;SDS011;20194;50.950;5.346;2022-08-21T07:09:50;13.55;;;2.75;;
33902;SDS011;20194;50.950;5.346;2022-08-21T07:12:16;6.65;;;2.40;;
33902;SDS011;20194;50.950;5.346;2022-08-21T07:14:42;9.05;;;2.72;;
33902;SDS011;20194;50.950;5.346;2022-08-21T07:17:07;8.07;;;2.38;;
33902;SDS011;20194;50.950;5.346;2022-08-21T07:19:33;11.20;;;2.40;;
33902;SDS011;20194;50.950;5.346;2022-08-21T07:22:00;11.95;;;2.95;;
33902;SDS011;20194;50.950;5.346;2022-08-21T07:24:27;14.50;;;2.58;;
33902;SDS011;20194;50.950;5.346;2022-08-21T07:26:53;8.30;;;2.03;;
33902;SDS011;20194;50.950;5.346;2022-08-21T07:29:18;10.48;;;2.20;;
33902;SDS011;20194;50.950;5.346;2022-08-21T07:31:44;13.27;;;2.78;;
33902;SDS011;20194;50.950;5.346;2022-08-21T07:34:10;8.75;;;2.70;;
33902;SDS011;20194;50.950;5.346;2022-08-21T07:36:36;10.48;;;2.13;;
33902;SDS011;20194;50.950;5.346;2022-08-21T07:39:02;8.38;;;2.45;;
33902;SDS011;20194;50.950;5.346;2022-08-21T07:41:28;5.47;;;2.20;;
33902;SDS011;20194;50.950;5.346;2022-08-21T07:43:57;9.02;;;2.20;;
33902;SDS011;20194;50.950;5.346;2022-08-21T07:46:24;9.43;;;1.73;;
33902;SDS011;20194;50.950;5.346;2022-08-21T07:48:50;9.63;;;2.15;;
33902;SDS011;20194;50.950;5.346;2022-08-21T07:51:17;6.20;;;1.92;;
33902;SDS011;20194;50.950;5.346;2022-08-21T07:53:50;9.10;;;1.80;;
33902;SDS011;20194;50.950;5.346;2022-08-21T07:56:17;13.40;;;2.33;;
33902;SDS011;20194;50.950;5.346;2022-08-21T07:58:43;6.32;;;2.25;;
33902;SDS011;20194;50.950;5.346;2022-08-21T08:01:08;14.82;;;2.85;;
33902;SDS011;20194;50.950;5.346;2022-08-21T08:03:35;6.95;;;2.00;;
33902;SDS011;20194;50.950;5.346;2022-08-21T08:06:01;7.78;;;1.90;;
33902;SDS011;20194;50.950;5.346;2022-08-21T08:08:29;11.50;;;2.15;;
33902;SDS011;20194;50.950;5.346;2022-08-21T08:10:56;8.05;;;2.33;;
33902;SDS011;20194;50.950;5.346;2022-08-21T08:13:23;6.45;;;1.80;;
33902;SDS011;20194;50.950;5.346;2022-08-21T08:15:48;13.35;;;2.92;;
33902;SDS011;20194;50.950;5.346;2022-08-21T08:18:14;15.80;;;2.53;;
33902;SDS011;20194;50.950;5.346;2022-08-21T08:20:40;10.10;;;2.47;;
33902;SDS011;20194;50.950;5.346;2022-08-21T08:23:07;12.63;;;3.03;;
33902;SDS011;20194;50.950;5.346;2022-08-21T08:25:35;8.00;;;1.83;;
33902;SDS011;20194;50.950;5.346;2022-08-21T08:28:00;9.75;;;2.75;;
33902;SDS011;20194;50.950;5.346;2022-08-21T08:30:26;9.70;;;1.73;;
33902;SDS011;20194;50.950;5.346;2022-08-21T08:32:52;5.45;;;1.67;;
33902;SDS011;20194;50.950;5.346;2022-08-21T08:35:17;9.45;;;2.72;;
33902;SDS011;20194;50.950;5.346;2022-08-21T08:37:43;11.23;;;2.67;;
33902;SDS011;20194;50.950;5.346;2022-08-21T08:40:14;8.77;;;2.40;;
33902;SDS011;20194;50.950;5.346;2022-08-21T08:42:48;10.88;;;1.90;;
33902;SDS011;20194;50.950;5.346;2022-08-21T08:45:17;7.07;;;1.92;;
33902;SDS011;20194;50.950;5.346;2022-08-21T08:47:48;8.18;;;1.77;;
33902;SDS011;20194;50.950;5.346;2022-08-21T08:50:28;8.48;;;1.90;;
33902;SDS011;20194;50.950;5.346;2022-08-21T08:53:02;5.47;;;1.77;;
33902;SDS011;20194;50.950;5.346;2022-08-21T08:55:32;8.38;;;2.20;;
33902;SDS011;20194;50.950;5.346;2022-08-21T08:58:01;7.47;;;2.28;;
33902;SDS011;20194;50.950;5.346;2022-08-21T09:00:29;8.88;;;1.77;;
33902;SDS011;20194;50.950;5.346;2022-08-21T09:02:56;7.40;;;1.90;;
33902;SDS011;20194;50.950;5.346;2022-08-21T09:05:28;7.53;;;1.80;;
33902;SDS011;20194;50.950;5.346;2022-08-21T09:11:13;8.98;;;2.28;;
33902;SDS011;20194;50.950;5.346;2022-08-21T09:16:50;7.00;;;1.60;;
33902;SDS011;20194;50.950;5.346;2022-08-21T09:27:43;7.00;;;1.60;;
33902;SDS011;20194;50.950;5.346;2022-08-21T09:30:09;5.78;;;1.35;;
33902;SDS011;20194;50.950;5.346;2022-08-21T09:32:36;7.18;;;1.50;;
33902;SDS011;20194;50.950;5.346;2022-08-21T09:37:44;3.92;;;1.55;;
33902;SDS011;20194;50.950;5.346;2022-08-21T09:40:55;4.55;;;1.30;;
33902;SDS011;20194;50.950;5.346;2022-08-21T09:45:39;4.97;;;1.58;;
33902;SDS011;20194;50.950;5.346;2022-08-21T09:48:14;3.90;;;1.10;;
33902;SDS011;20194;50.950;5.346;2022-08-21T09:50:48;5.95;;;1.40;;
33902;SDS011;20194;50.950;5.346;2022-08-21T09:58:36;4.60;;;1.20;;
33902;SDS011;20194;50.950;5.346;2022-08-21T10:01:03;7.47;;;1.80;;
33902;SDS011;20194;50.950;5.346;2022-08-21T10:03:31;7.25;;;1.60;;
33902;SDS011;20194;50.950;5.346;2022-08-21T10:05:59;5.13;;;0.85;;
33902;SDS011;20194;50.950;5.346;2022-08-21T10:08:30;6.85;;;1.42;;
33902;SDS011;20194;50.950;5.346;2022-08-21T10:11:01;7.95;;;1.85;;
33902;SDS011;20194;50.950;5.346;2022-08-21T10:16:24;7.25;;;1.30;;
33902;SDS011;20194;50.950;5.346;2022-08-21T10:24:29;3.78;;;1.10;;
33902;SDS011;20194;50.950;5.346;2022-08-21T10:30:13;3.30;;;1.40;;
33902;SDS011;20194;50.950;5.346;2022-08-21T10:35:29;6.05;;;2.33;;
33902;SDS011;20194;50.950;5.346;2022-08-21T10:40:55;7.50;;;1.63;;
33902;SDS011;20194;50.950;5.346;2022-08-21T10:51:46;7.72;;;1.55;;
33902;SDS011;20194;50.950;5.346;2022-08-21T10:54:22;5.43;;;1.60;;
33902;SDS011;20194;50.950;5.346;2022-08-21T10:57:07;6.30;;;1.40;;
33902;SDS011;20194;50.950;5.346;2022-08-21T10:59:42;6.80;;;1.35;;
33902;SDS011;20194;50.950;5.346;2022-08-21T11:02:17;6.30;;;1.70;;
33902;SDS011;20194;50.950;5.346;2022-08-21T11:07:25;7.95;;;2.00;;
33902;SDS011;20194;50.950;5.346;2022-08-21T11:09:55;6.53;;;2.10;;
33902;SDS011;20194;50.950;5.346;2022-08-21T11:12:29;8.50;;;2.20;;
33902;SDS011;20194;50.950;5.346;2022-08-21T11:17:54;7.57;;;1.63;;
33902;SDS011;20194;50.950;5.346;2022-08-21T11:20:50;7.20;;;1.73;;
33902;SDS011;20194;50.950;5.346;2022-08-21T11:23:38;5.15;;;1.30;;
33902;SDS011;20194;50.950;5.346;2022-08-21T11:26:17;6.57;;;1.27;;
33902;SDS011;20194;50.950;5.346;2022-08-21T11:28:58;6.00;;;1.52;;
33902;SDS011;20194;50.950;5.346;2022-08-21T11:34:35;10.77;;;2.05;;
33902;SDS011;20194;50.950;5.346;2022-08-21T11:47:54;12.85;;;1.67;;
33902;SDS011;20194;50.950;5.346;2022-08-21T11:50:28;3.97;;;1.38;;
33902;SDS011;20194;50.950;5.346;2022-08-21T11:55:32;11.23;;;2.17;;
33902;SDS011;20194;50.950;5.346;2022-08-21T11:58:02;4.22;;;1.55;;
33902;SDS011;20194;50.950;5.346;2022-08-21T12:00:33;6.95;;;1.40;;
33902;SDS011;20194;50.950;5.346;2022-08-21T12:03:10;8.68;;;1.88;;
33902;SDS011;20194;50.950;5.346;2022-08-21T12:05:51;8.98;;;2.03;;
33902;SDS011;20194;50.950;5.346;2022-08-21T12:08:29;5.47;;;1.45;;
33902;SDS011;20194;50.950;5.346;2022-08-21T12:11:05;8.15;;;2.08;;
33902;SDS011;20194;50.950;5.346;2022-08-21T12:13:57;6.88;;;1.65;;
33902;SDS011;20194;50.950;5.346;2022-08-21T12:16:33;10.45;;;2.03;;
33902;SDS011;20194;50.950;5.346;2022-08-21T12:19:08;9.57;;;2.17;;
33902;SDS011;20194;50.950;5.346;2022-08-21T12:24:36;6.18;;;2.00;;
33902;SDS011;20194;50.950;5.346;2022-08-21T12:29:48;7.22;;;2.13;;
33902;SDS011;20194;50.950;5.346;2022-08-21T12:34:44;8.65;;;2.00;;
33902;SDS011;20194;50.950;5.346;2022-08-21T12:37:15;7.28;;;2.15;;
33902;SDS011;20194;50.950;5.346;2022-08-21T12:39:46;7.15;;;2.00;;
33902;SDS011;20194;50.950;5.346;2022-08-21T12:42:21;6.40;;;1.70;;
33902;SDS011;20194;50.950;5.346;2022-08-21T12:45:02;8.98;;;1.70;;
33902;SDS011;20194;50.950;5.346;2022-08-21T12:47:36;9.70;;;2.08;;
33902;SDS011;20194;50.950;5.346;2022-08-21T12:50:26;8.52;;;1.65;;
33902;SDS011;20194;50.950;5.346;2022-08-21T12:53:10;13.32;;;2.03;;
33902;SDS011;20194;50.950;5.346;2022-08-21T12:55:57;6.53;;;1.75;;
33902;SDS011;20194;50.950;5.346;2022-08-21T12:58:29;8.50;;;1.90;;
33902;SDS011;20194;50.950;5.346;2022-08-21T13:01:06;11.55;;;2.45;;
33902;SDS011;20194;50.950;5.346;2022-08-21T13:03:38;8.68;;;2.35;;
33902;SDS011;20194;50.950;5.346;2022-08-21T13:06:05;9.60;;;1.65;;
33902;SDS011;20194;50.950;5.346;2022-08-21T13:08:32;6.97;;;2.10;;
33902;SDS011;20194;50.950;5.346;2022-08-21T13:11:02;4.90;;;1.73;;
33902;SDS011;20194;50.950;5.346;2022-08-21T13:13:30;8.77;;;1.58;;
33902;SDS011;20194;50.950;5.346;2022-08-21T13:15:58;6.50;;;1.85;;
33902;SDS011;20194;50.950;5.346;2022-08-21T13:18:29;6.25;;;1.60;;
33902;SDS011;20194;50.950;5.346;2022-08-21T13:21:07;12.00;;;2.30;;
33902;SDS011;20194;50.950;5.346;2022-08-21T13:23:39;7.35;;;1.95;;
33902;SDS011;20194;50.950;5.346;2022-08-21T13:29:05;6.10;;;1.98;;
33902;SDS011;20194;50.950;5.346;2022-08-21T13:31:32;8.23;;;1.92;;
33902;SDS011;20194;50.950;5.346;2022-08-21T13:33:58;6.88;;;1.88;;
33902;SDS011;20194;50.950;5.346;2022-08-21T13:36:25;10.13;;;2.00;;
33902;SDS011;20194;50.950;5.346;2022-08-21T13:38:56;5.30;;;1.95;;
33902;SDS011;20194;50.950;5.346;2022-08-21T13:41:26;6.10;;;1.75;;
33902;SDS011;20194;50.950;5.346;2022-08-21T13:43:57;10.85;;;1.98;;
33902;SDS011;20194;50.950;5.346;2022-08-21T13:46:26;7.03;;;1.92;;
33902;SDS011;20194;50.950;5.346;2022-08-21T13:48:55;11.15;;;1.88;;
33902;SDS011;20194;50.950;5.346;2022-08-21T13:51:23;8.15;;;1.75;;
33902;SDS011;20194;50.950;5.346;2022-08-21T13:53:50;6.93;;;1.38;;
33902;SDS011;20194;50.950;5.346;2022-08-21T13:56:24;6.03;;;1.73;;
33902;SDS011;20194;50.950;5.346;2022-08-21T13:58:55;12.65;;;2.10;;
33902;SDS011;20194;50.950;5.346;2022-08-21T14:01:32;6.03;;;1.65;;
33902;SDS011;20194;50.950;5.346;2022-08-21T14:09:24;6.85;;;1.63;;
33902;SDS011;20194;50.950;5.346;2022-08-21T14:11:54;5.35;;;1.70;;
33902;SDS011;20194;50.950;5.346;2022-08-21T14:14:23;6.63;;;1.80;;
33902;SDS011;20194;50.950;5.346;2022-08-21T14:17:10;7.47;;;1.60;;
33902;SDS011;20194;50.950;5.346;2022-08-21T14:19:40;5.03;;;1.80;;
33902;SDS011;20194;50.950;5.346;2022-08-21T14:22:21;11.32;;;2.30;;
33902;SDS011;20194;50.950;5.346;2022-08-21T14:25:01;10.02;;;2.15;;
33902;SDS011;20194;50.950;5.346;2022-08-21T14:27:38;6.95;;;1.88;;
33902;SDS011;20194;50.950;5.346;2022-08-21T14:32:42;6.20;;;1.98;;
33902;SDS011;20194;50.950;5.346;2022-08-21T14:35:08;8.07;;;1.90;;
33902;SDS011;20194;50.950;5.346;2022-08-21T14:37:35;7.75;;;1.85;;
33902;SDS011;20194;50.950;5.346;2022-08-21T14:40:01;7.50;;;1.92;;
33902;SDS011;20194;50.950;5.346;2022-08-21T14:42:29;8.55;;;2.25;;
33902;SDS011;20194;50.950;5.346;2022-08-21T14:44:59;7.68;;;2.90;;
33902;SDS011;20194;50.950;5.346;2022-08-21T14:47:29;6.65;;;1.50;;
33902;SDS011;20194;50.950;5.346;2022-08-21T14:49:55;10.30;;;1.35;;
33902;SDS011;20194;50.950;5.346;2022-08-21T14:52:20;8.40;;;1.88;;
33902;SDS011;20194;50.950;5.346;2022-08-21T14:54:47;11.18;;;2.10;;
33902;SDS011;20194;50.950;5.346;2022-08-21T14:57:13;7.47;;;1.75;;
33902;SDS011;20194;50.950;5.346;2022-08-21T14:59:39;5.43;;;1.52;;
33902;SDS011;20194;50.950;5.346;2022-08-21T15:02:05;7.90;;;1.70;;
33902;SDS011;20194;50.950;5.346;2022-08-21T15:04:32;5.50;;;1.45;;
33902;SDS011;20194;50.950;5.346;2022-08-21T15:06:58;7.55;;;1.65;;
33902;SDS011;20194;50.950;5.346;2022-08-21T15:09:24;9.15;;;1.90;;
33902;SDS011;20194;50.950;5.346;2022-08-21T15:11:51;5.47;;;1.77;;
33902;SDS011;20194;50.950;5.346;2022-08-21T15:14:20;6.63;;;1.60;;
33902;SDS011;20194;50.950;5.346;2022-08-21T15:16:49;10.75;;;1.98;;
33902;SDS011;20194;50.950;5.346;2022-08-21T15:19:16;10.63;;;2.15;;
33902;SDS011;20194;50.950;5.346;2022-08-21T15:21:41;7.70;;;1.50;;
33902;SDS011;20194;50.950;5.346;2022-08-21T15:24:08;15.77;;;2.67;;
33902;SDS011;20194;50.950;5.346;2022-08-21T15:26:34;7.97;;;2.20;;
33902;SDS011;20194;50.950;5.346;2022-08-21T15:29:01;5.85;;;1.95;;
33902;SDS011;20194;50.950;5.346;2022-08-21T15:31:27;10.90;;;1.88;;
33902;SDS011;20194;50.950;5.346;2022-08-21T15:33:53;7.80;;;2.03;;
33902;SDS011;20194;50.950;5.346;2022-08-21T15:36:20;9.57;;;2.40;;
33902;SDS011;20194;50.950;5.346;2022-08-21T15:38:45;5.90;;;2.05;;
33902;SDS011;20194;50.950;5.346;2022-08-21T15:41:11;5.78;;;1.50;;
33902;SDS011;20194;50.950;5.346;2022-08-21T15:43:48;6.28;;;2.40;;
33902;SDS011;20194;50.950;5.346;2022-08-21T15:46:17;8.38;;;1.77;;
33902;SDS011;20194;50.950;5.346;2022-08-21T15:48:44;5.55;;;2.00;;
33902;SDS011;20194;50.950;5.346;2022-08-21T15:51:11;7.35;;;1.80;;
33902;SDS011;20194;50.950;5.346;2022-08-21T15:53:37;9.60;;;1.98;;
33902;SDS011;20194;50.950;5.346;2022-08-21T15:58:58;11.50;;;1.80;;
33902;SDS011;20194;50.950;5.346;2022-08-21T16:01:26;5.90;;;1.77;;
33902;SDS011;20194;50.950;5.346;2022-08-21T16:03:53;6.53;;;1.77;;
33902;SDS011;20194;50.950;5.346;2022-08-21T16:06:20;7.60;;;2.13;;
33902;SDS011;20194;50.950;5.346;2022-08-21T16:08:46;5.88;;;1.38;;
33902;SDS011;20194;50.950;5.346;2022-08-21T16:11:12;10.50;;;1.67;;
33902;SDS011;20194;50.950;5.346;2022-08-21T16:13:40;9.23;;;2.55;;
33902;SDS011;20194;50.950;5.346;2022-08-21T16:16:08;10.95;;;2.08;;
33902;SDS011;20194;50.950;5.346;2022-08-21T16:18:35;6.53;;;1.77;;
33902;SDS011;20194;50.950;5.346;2022-08-21T16:21:01;5.60;;;1.75;;
33902;SDS011;20194;50.950;5.346;2022-08-21T16:23:27;7.30;;;1.90;;
33902;SDS011;20194;50.950;5.346;2022-08-21T16:25:54;7.30;;;1.90;;
33902;SDS011;20194;50.950;5.346;2022-08-21T16:28:22;9.20;;;2.13;;